sensor_id;sensor_type;location;lat;lon;timestamp;pressure;altitude;pressure_sealevel;temperature;humidity
1472;BME280;963;42.644;23.336;2022-07-03T00:01:16;94616.63;;;21.13;76.51
1472;BME280;963;42.644;23.336;2022-07-03T00:03:42;94614.13;;;21.26;76.08
1472;BME280;963;42.644;23.336;2022-07-03T00:06:07;94628.69;;;20.81;79.31
1472;BME280;963;42.644;23.336;2022-07-03T00:08:33;94616.91;;;20.99;78.41
1472;BME280;963;42.644;23.336;2022-07-03T00:10:59;94636.28;;;21.26;77.12
1472;BME280;963;42.644;23.336;2022-07-03T00:13:24;94621.09;;;21.39;76.69
1472;BME280;963;42.644;23.336;2022-07-03T00:15:49;94622.41;;;21.31;76.95
1472;BME280;963;42.644;23.336;2022-07-03T00:18:15;94625.94;;;21.44;76.24
1472;BME280;963;42.644;23.336;2022-07-03T00:20:45;94630.63;;;21.60;74.86
1472;BME280;963;42.644;23.336;2022-07-03T00:23:16;94621.50;;;21.74;74.79
1472;BME280;963;42.644;23.336;2022-07-03T00:25:42;94620.66;;;21.61;75.22
1472;BME280;963;42.644;23.336;2022-07-03T00:28:08;94629.22;;;21.72;74.06
1472;BME280;963;42.644;23.336;2022-07-03T00:30:34;94612.69;;;21.93;73.25
1472;BME280;963;42.644;23.336;2022-07-03T00:33:03;94613.47;;;21.74;73.83
1472;BME280;963;42.644;23.336;2022-07-03T00:35:35;94626.47;;;21.56;74.60
1472;BME280;963;42.644;23.336;2022-07-03T00:38:02;94624.34;;;21.67;74.42
1472;BME280;963;42.644;23.336;2022-07-03T00:40:29;94609.22;;;21.40;75.27
1472;BME280;963;42.644;23.336;2022-07-03T00:42:55;94596.34;;;21.51;75.07
1472;BME280;963;42.644;23.336;2022-07-03T00:45:21;94601.38;;;21.49;75.46
1472;BME280;963;42.644;23.336;2022-07-03T00:47:46;94599.88;;;21.48;75.11
1472;BME280;963;42.644;23.336;2022-07-03T00:50:13;94589.88;;;21.69;74.06
1472;BME280;963;42.644;23.336;2022-07-03T00:52:45;94591.13;;;21.80;73.85
1472;BME280;963;42.644;23.336;2022-07-03T00:55:17;94594.41;;;21.72;74.61
1472;BME280;963;42.644;23.336;2022-07-03T00:57:47;94589.22;;;21.81;74.11
1472;BME280;963;42.644;23.336;2022-07-03T01:00:14;94581.00;;;21.72;74.00
1472;BME280;963;42.644;23.336;2022-07-03T01:08:06;94592.44;;;22.08;72.94
1472;BME280;963;42.644;23.336;2022-07-03T01:13:18;94583.22;;;21.93;73.38
1472;BME280;963;42.644;23.336;2022-07-03T01:21:50;94583.03;;;22.00;72.34
1472;BME280;963;42.644;23.336;2022-07-03T01:26:55;94579.19;;;22.01;72.04
1472;BME280;963;42.644;23.336;2022-07-03T01:29:26;94577.34;;;21.98;71.97
1472;BME280;963;42.644;23.336;2022-07-03T01:31:55;94591.56;;;21.79;72.77
1472;BME280;963;42.644;23.336;2022-07-03T01:34:25;94578.75;;;21.70;73.11
1472;BME280;963;42.644;23.336;2022-07-03T01:36:54;94588.78;;;21.82;72.62
1472;BME280;963;42.644;23.336;2022-07-03T01:39:26;94578.84;;;21.83;72.96
1472;BME280;963;42.644;23.336;2022-07-03T01:41:53;94582.72;;;21.98;75.08
1472;BME280;963;42.644;23.336;2022-07-03T01:44:19;94573.16;;;21.97;75.66
1472;BME280;963;42.644;23.336;2022-07-03T01:46:46;94571.50;;;22.03;75.44
1472;BME280;963;42.644;23.336;2022-07-03T01:49:13;94588.72;;;22.02;76.19
1472;BME280;963;42.644;23.336;2022-07-03T01:51:41;94588.16;;;21.95;75.90
1472;BME280;963;42.644;23.336;2022-07-03T01:54:09;94577.34;;;21.98;75.37
1472;BME280;963;42.644;23.336;2022-07-03T01:56:35;94580.03;;;21.98;74.31
1472;BME280;963;42.644;23.336;2022-07-03T01:59:01;94585.88;;;21.93;73.17
1472;BME280;963;42.644;23.336;2022-07-03T02:07:29;94596.94;;;21.95;76.77
1472;BME280;963;42.644;23.336;2022-07-03T02:10:06;94595.75;;;21.96;77.38
1472;BME280;963;42.644;23.336;2022-07-03T02:12:38;94585.19;;;21.89;77.80
1472;BME280;963;42.644;23.336;2022-07-03T02:15:07;94578.00;;;21.70;79.44
1472;BME280;963;42.644;23.336;2022-07-03T02:17:39;94580.50;;;21.77;78.72
1472;BME280;963;42.644;23.336;2022-07-03T02:20:09;94578.00;;;21.70;78.68
1472;BME280;963;42.644;23.336;2022-07-03T02:22:38;94583.09;;;21.80;78.74
1472;BME280;963;42.644;23.336;2022-07-03T02:25:19;94584.53;;;21.85;78.38
1472;BME280;963;42.644;23.336;2022-07-03T02:27:57;94578.31;;;21.88;78.58
1472;BME280;963;42.644;23.336;2022-07-03T02:30:27;94583.69;;;21.88;78.61
1472;BME280;963;42.644;23.336;2022-07-03T02:32:55;94581.00;;;21.88;77.98
1472;BME280;963;42.644;23.336;2022-07-03T02:35:26;94591.31;;;21.90;78.38
1472;BME280;963;42.644;23.336;2022-07-03T02:38:03;94594.41;;;21.88;78.34
1472;BME280;963;42.644;23.336;2022-07-03T02:46:15;94593.72;;;21.84;78.36
1472;BME280;963;42.644;23.336;2022-07-03T02:52:21;94597.84;;;21.89;78.59
1472;BME280;963;42.644;23.336;2022-07-03T02:54:52;94600.09;;;21.90;78.81
1472;BME280;963;42.644;23.336;2022-07-03T02:57:18;94601.59;;;21.91;78.56
1472;BME280;963;42.644;23.336;2022-07-03T03:00:03;94611.13;;;21.92;79.04
1472;BME280;963;42.644;23.336;2022-07-03T03:02:59;94613.47;;;21.90;78.72
1472;BME280;963;42.644;23.336;2022-07-03T03:10:29;94609.13;;;21.64;79.79
1472;BME280;963;42.644;23.336;2022-07-03T03:13:06;94613.13;;;21.72;80.03
1472;BME280;963;42.644;23.336;2022-07-03T03:15:35;94607.44;;;21.70;79.81
1472;BME280;963;42.644;23.336;2022-07-03T03:18:06;94612.63;;;21.77;79.65
1472;BME280;963;42.644;23.336;2022-07-03T03:20:35;94623.69;;;21.79;79.39
1472;BME280;963;42.644;23.336;2022-07-03T03:25:54;94609.13;;;21.80;79.16
1472;BME280;963;42.644;23.336;2022-07-03T03:28:20;94610.97;;;21.83;79.13
1472;BME280;963;42.644;23.336;2022-07-03T03:30:45;94624.19;;;21.90;78.44
1472;BME280;963;42.644;23.336;2022-07-03T03:33:11;94629.91;;;21.92;78.52
1472;BME280;963;42.644;23.336;2022-07-03T03:35:38;94637.13;;;21.95;78.44
1472;BME280;963;42.644;23.336;2022-07-03T03:38:04;94631.69;;;21.99;78.59
1472;BME280;963;42.644;23.336;2022-07-03T03:40:31;94621.72;;;21.99;78.18
1472;BME280;963;42.644;23.336;2022-07-03T03:42:57;94614.00;;;22.01;77.83
1472;BME280;963;42.644;23.336;2022-07-03T03:45:23;94641.09;;;22.07;77.94
1472;BME280;963;42.644;23.336;2022-07-03T03:47:48;94614.63;;;22.09;77.24
1472;BME280;963;42.644;23.336;2022-07-03T03:50:14;94616.28;;;22.03;77.66
1472;BME280;963;42.644;23.336;2022-07-03T03:52:39;94612.69;;;21.93;77.53
1472;BME280;963;42.644;23.336;2022-07-03T03:55:05;94640.00;;;22.04;78.09
1472;BME280;963;42.644;23.336;2022-07-03T03:57:31;94633.31;;;22.12;76.99
1472;BME280;963;42.644;23.336;2022-07-03T03:59:56;94628.84;;;22.22;76.80
1472;BME280;963;42.644;23.336;2022-07-03T04:02:22;94641.00;;;22.27;76.76
1472;BME280;963;42.644;23.336;2022-07-03T04:04:48;94627.94;;;22.29;76.14
1472;BME280;963;42.644;23.336;2022-07-03T04:07:13;94620.25;;;22.31;75.65
1472;BME280;963;42.644;23.336;2022-07-03T04:09:39;94629.38;;;22.33;75.94
1472;BME280;963;42.644;23.336;2022-07-03T04:12:04;94613.28;;;22.33;76.00
1472;BME280;963;42.644;23.336;2022-07-03T04:14:30;94623.00;;;22.43;75.82
1472;BME280;963;42.644;23.336;2022-07-03T04:16:56;94612.50;;;22.49;75.43
1472;BME280;963;42.644;23.336;2022-07-03T04:19:22;94618.78;;;22.59;75.12
1472;BME280;963;42.644;23.336;2022-07-03T04:21:48;94622.19;;;22.59;74.75
1472;BME280;963;42.644;23.336;2022-07-03T04:24:15;94627.00;;;22.68;74.61
1472;BME280;963;42.644;23.336;2022-07-03T04:26:40;94617.66;;;22.72;74.75
1472;BME280;963;42.644;23.336;2022-07-03T04:29:06;94614.91;;;22.76;74.06
1472;BME280;963;42.644;23.336;2022-07-03T04:31:31;94615.16;;;22.82;73.71
1472;BME280;963;42.644;23.336;2022-07-03T04:33:57;94608.13;;;22.71;73.99
1472;BME280;963;42.644;23.336;2022-07-03T04:36:22;94609.28;;;22.70;74.35
1472;BME280;963;42.644;23.336;2022-07-03T04:38:47;94612.22;;;22.76;73.98
1472;BME280;963;42.644;23.336;2022-07-03T04:41:13;94622.78;;;22.83;73.79
1472;BME280;963;42.644;23.336;2022-07-03T04:43:38;94607.25;;;22.91;72.95
1472;BME280;963;42.644;23.336;2022-07-03T04:46:04;94611.66;;;22.97;72.78
1472;BME280;963;42.644;23.336;2022-07-03T04:48:29;94617.63;;;23.05;72.12
1472;BME280;963;42.644;23.336;2022-07-03T04:50:55;94608.03;;;23.04;72.16
1472;BME280;963;42.644;23.336;2022-07-03T04:53:21;94618.06;;;23.16;72.23
1472;BME280;963;42.644;23.336;2022-07-03T04:55:46;94614.63;;;23.16;72.05
1472;BME280;963;42.644;23.336;2022-07-03T04:58:11;94619.56;;;23.17;71.75
1472;BME280;963;42.644;23.336;2022-07-03T05:00:37;94612.41;;;23.27;71.46
1472;BME280;963;42.644;23.336;2022-07-03T05:03:03;94612.19;;;23.34;70.12
1472;BME280;963;42.644;23.336;2022-07-03T05:05:28;94611.75;;;23.35;70.50
1472;BME280;963;42.644;23.336;2022-07-03T05:07:53;94615.50;;;23.25;70.10
1472;BME280;963;42.644;23.336;2022-07-03T05:10:19;94614.78;;;23.37;69.14
1472;BME280;963;42.644;23.336;2022-07-03T05:12:44;94607.56;;;23.34;67.12
1472;BME280;963;42.644;23.336;2022-07-03T05:15:10;94615.09;;;23.39;66.28
1472;BME280;963;42.644;23.336;2022-07-03T05:17:35;94608.91;;;23.43;64.79
1472;BME280;963;42.644;23.336;2022-07-03T05:20:02;94608.59;;;23.53;64.28
1472;BME280;963;42.644;23.336;2022-07-03T05:22:46;94614.31;;;23.26;65.45
1472;BME280;963;42.644;23.336;2022-07-03T05:25:12;94609.06;;;23.35;64.98
1472;BME280;963;42.644;23.336;2022-07-03T05:27:38;94610.41;;;23.44;64.20
1472;BME280;963;42.644;23.336;2022-07-03T05:30:03;94622.13;;;23.50;64.31
1472;BME280;963;42.644;23.336;2022-07-03T05:32:29;94610.00;;;23.58;64.36
1472;BME280;963;42.644;23.336;2022-07-03T05:34:54;94597.53;;;23.64;64.92
1472;BME280;963;42.644;23.336;2022-07-03T05:37:20;94604.41;;;23.65;65.68
1472;BME280;963;42.644;23.336;2022-07-03T05:39:45;94601.03;;;23.35;66.28
1472;BME280;963;42.644;23.336;2022-07-03T05:42:11;94623.69;;;23.34;66.53
1472;BME280;963;42.644;23.336;2022-07-03T05:44:36;94613.94;;;23.53;66.10
1472;BME280;963;42.644;23.336;2022-07-03T05:47:01;94623.34;;;23.74;65.16
1472;BME280;963;42.644;23.336;2022-07-03T05:49:27;94626.56;;;23.94;64.90
1472;BME280;963;42.644;23.336;2022-07-03T05:51:53;94625.06;;;24.06;63.39
1472;BME280;963;42.644;23.336;2022-07-03T05:54:18;94621.28;;;24.04;63.75
1472;BME280;963;42.644;23.336;2022-07-03T05:56:43;94625.25;;;24.12;63.39
1472;BME280;963;42.644;23.336;2022-07-03T05:59:09;94622.81;;;24.05;64.10
1472;BME280;963;42.644;23.336;2022-07-03T06:01:34;94625.41;;;23.83;65.79
1472;BME280;963;42.644;23.336;2022-07-03T06:04:00;94633.88;;;24.07;65.57
1472;BME280;963;42.644;23.336;2022-07-03T06:06:25;94617.84;;;24.16;64.91
1472;BME280;963;42.644;23.336;2022-07-03T06:08:51;94642.03;;;23.65;66.23
1472;BME280;963;42.644;23.336;2022-07-03T06:11:17;94635.47;;;23.79;66.87
1472;BME280;963;42.644;23.336;2022-07-03T06:13:42;94656.78;;;24.11;65.52
1472;BME280;963;42.644;23.336;2022-07-03T06:16:08;94629.13;;;24.11;65.36
1472;BME280;963;42.644;23.336;2022-07-03T06:18:33;94623.69;;;23.89;65.99
1472;BME280;963;42.644;23.336;2022-07-03T06:20:59;94636.13;;;24.08;65.31
1472;BME280;963;42.644;23.336;2022-07-03T06:23:24;94632.69;;;24.08;64.00
1472;BME280;963;42.644;23.336;2022-07-03T06:25:49;94617.19;;;24.12;64.31
1472;BME280;963;42.644;23.336;2022-07-03T06:28:15;94626.34;;;24.40;63.21
1472;BME280;963;42.644;23.336;2022-07-03T06:30:40;94631.72;;;24.01;64.10
1472;BME280;963;42.644;23.336;2022-07-03T06:33:05;94633.97;;;24.41;63.56
1472;BME280;963;42.644;23.336;2022-07-03T06:35:31;94628.81;;;24.34;62.41
1472;BME280;963;42.644;23.336;2022-07-03T06:38:01;94629.53;;;24.47;62.56
1472;BME280;963;42.644;23.336;2022-07-03T06:40:26;94629.69;;;24.18;63.32
1472;BME280;963;42.644;23.336;2022-07-03T06:42:52;94627.41;;;24.42;62.19
1472;BME280;963;42.644;23.336;2022-07-03T06:45:17;94636.66;;;24.41;63.15
1472;BME280;963;42.644;23.336;2022-07-03T06:47:43;94639.97;;;24.58;62.54
1472;BME280;963;42.644;23.336;2022-07-03T06:50:08;94619.66;;;24.79;61.63
1472;BME280;963;42.644;23.336;2022-07-03T06:52:34;94631.16;;;24.92;61.45
1472;BME280;963;42.644;23.336;2022-07-03T06:54:59;94611.97;;;24.68;62.05
1472;BME280;963;42.644;23.336;2022-07-03T06:57:24;94641.16;;;24.91;62.04
1472;BME280;963;42.644;23.336;2022-07-03T06:59:50;94617.13;;;24.97;61.70
1472;BME280;963;42.644;23.336;2022-07-03T07:02:15;94620.91;;;25.00;61.51
1472;BME280;963;42.644;23.336;2022-07-03T07:04:41;94624.25;;;24.91;61.83
1472;BME280;963;42.644;23.336;2022-07-03T07:07:06;94623.59;;;24.87;61.72
1472;BME280;963;42.644;23.336;2022-07-03T07:09:32;94624.47;;;24.84;62.54
1472;BME280;963;42.644;23.336;2022-07-03T07:11:57;94614.59;;;24.81;61.86
1472;BME280;963;42.644;23.336;2022-07-03T07:14:22;94621.56;;;24.56;62.45
1472;BME280;963;42.644;23.336;2022-07-03T07:16:48;94615.84;;;24.89;62.41
1472;BME280;963;42.644;23.336;2022-07-03T07:19:13;94612.75;;;25.12;62.04
1472;BME280;963;42.644;23.336;2022-07-03T07:21:39;94609.25;;;25.24;61.54
1472;BME280;963;42.644;23.336;2022-07-03T07:24:04;94620.53;;;25.10;61.72
1472;BME280;963;42.644;23.336;2022-07-03T07:26:30;94620.22;;;25.30;61.03
1472;BME280;963;42.644;23.336;2022-07-03T07:28:55;94619.16;;;25.28;61.14
1472;BME280;963;42.644;23.336;2022-07-03T07:31:21;94600.09;;;25.22;60.42
1472;BME280;963;42.644;23.336;2022-07-03T07:33:46;94592.84;;;25.32;60.06
1472;BME280;963;42.644;23.336;2022-07-03T07:36:12;94611.19;;;25.24;60.45
1472;BME280;963;42.644;23.336;2022-07-03T07:38:37;94597.44;;;25.00;61.86
1472;BME280;963;42.644;23.336;2022-07-03T07:41:02;94607.25;;;24.94;62.26
1472;BME280;963;42.644;23.336;2022-07-03T07:43:28;94609.75;;;25.10;61.16
1472;BME280;963;42.644;23.336;2022-07-03T07:45:53;94597.63;;;25.06;61.71
1472;BME280;963;42.644;23.336;2022-07-03T07:48:19;94619.25;;;25.46;60.84
1472;BME280;963;42.644;23.336;2022-07-03T07:50:44;94607.06;;;25.32;61.60
1472;BME280;963;42.644;23.336;2022-07-03T07:53:10;94610.72;;;25.69;60.78
1472;BME280;963;42.644;23.336;2022-07-03T07:55:35;94594.91;;;25.80;59.93
1472;BME280;963;42.644;23.336;2022-07-03T07:58:00;94604.66;;;25.87;59.78
1472;BME280;963;42.644;23.336;2022-07-03T08:00:26;94600.09;;;26.06;59.19
1472;BME280;963;42.644;23.336;2022-07-03T08:02:51;94619.09;;;26.02;59.83
1472;BME280;963;42.644;23.336;2022-07-03T08:05:35;94605.22;;;25.51;61.25
1472;BME280;963;42.644;23.336;2022-07-03T08:08:22;94600.25;;;25.71;61.45
1472;BME280;963;42.644;23.336;2022-07-03T08:10:48;94596.94;;;26.07;60.19
1472;BME280;963;42.644;23.336;2022-07-03T08:13:18;94601.31;;;26.14;58.91
1472;BME280;963;42.644;23.336;2022-07-03T08:15:44;94589.84;;;25.92;59.44
1472;BME280;963;42.644;23.336;2022-07-03T08:18:10;94591.63;;;25.85;58.89
1472;BME280;963;42.644;23.336;2022-07-03T08:20:37;94603.09;;;26.08;58.66
1472;BME280;963;42.644;23.336;2022-07-03T08:23:03;94585.13;;;26.14;57.79
1472;BME280;963;42.644;23.336;2022-07-03T08:25:29;94596.06;;;26.10;57.94
1472;BME280;963;42.644;23.336;2022-07-03T08:27:55;94591.72;;;26.22;58.59
1472;BME280;963;42.644;23.336;2022-07-03T08:30:21;94578.53;;;26.24;58.23
1472;BME280;963;42.644;23.336;2022-07-03T08:32:48;94591.28;;;26.33;58.68
1472;BME280;963;42.644;23.336;2022-07-03T08:35:14;94595.38;;;26.37;58.91
1472;BME280;963;42.644;23.336;2022-07-03T08:37:40;94587.31;;;26.56;59.15
1472;BME280;963;42.644;23.336;2022-07-03T08:40:10;94578.16;;;26.44;59.20
1472;BME280;963;42.644;23.336;2022-07-03T08:42:45;94579.97;;;26.65;58.40
1472;BME280;963;42.644;23.336;2022-07-03T08:45:16;94574.72;;;26.89;56.64
1472;BME280;963;42.644;23.336;2022-07-03T08:47:42;94576.97;;;26.91;56.93
1472;BME280;963;42.644;23.336;2022-07-03T08:50:12;94584.31;;;27.08;57.27
1472;BME280;963;42.644;23.336;2022-07-03T08:52:38;94567.50;;;27.23;56.80
1472;BME280;963;42.644;23.336;2022-07-03T08:55:04;94568.03;;;27.45;56.10
1472;BME280;963;42.644;23.336;2022-07-03T08:57:31;94563.50;;;27.60;54.65
1472;BME280;963;42.644;23.336;2022-07-03T08:59:58;94571.84;;;27.81;54.77
1472;BME280;963;42.644;23.336;2022-07-03T09:02:26;94567.91;;;27.82;53.75
1472;BME280;963;42.644;23.336;2022-07-03T09:04:52;94558.44;;;27.86;51.93
1472;BME280;963;42.644;23.336;2022-07-03T09:07:18;94571.19;;;27.95;53.18
1472;BME280;963;42.644;23.336;2022-07-03T09:09:45;94565.94;;;27.91;51.49
1472;BME280;963;42.644;23.336;2022-07-03T09:12:13;94579.66;;;27.79;52.53
1472;BME280;963;42.644;23.336;2022-07-03T09:14:38;94555.28;;;27.88;52.32
1472;BME280;963;42.644;23.336;2022-07-03T09:17:06;94567.78;;;28.09;52.42
1472;BME280;963;42.644;23.336;2022-07-03T09:19:46;94562.38;;;28.09;50.47
1472;BME280;963;42.644;23.336;2022-07-03T09:22:26;94567.84;;;28.00;50.95
1472;BME280;963;42.644;23.336;2022-07-03T09:24:54;94565.91;;;28.24;50.35
1472;BME280;963;42.644;23.336;2022-07-03T09:27:22;94559.75;;;28.24;47.94
1472;BME280;963;42.644;23.336;2022-07-03T09:30:08;94558.56;;;28.25;49.19
1472;BME280;963;42.644;23.336;2022-07-03T09:35:22;94553.88;;;28.49;48.43
1472;BME280;963;42.644;23.336;2022-07-03T09:37:59;94546.66;;;28.22;48.41
1472;BME280;963;42.644;23.336;2022-07-03T09:40:47;94554.41;;;28.62;48.78
1472;BME280;963;42.644;23.336;2022-07-03T09:43:14;94552.53;;;28.69;49.60
1472;BME280;963;42.644;23.336;2022-07-03T09:45:56;94549.50;;;28.90;46.94
1472;BME280;963;42.644;23.336;2022-07-03T09:48:35;94542.41;;;28.93;47.28
1472;BME280;963;42.644;23.336;2022-07-03T09:51:11;94553.81;;;28.97;47.19
1472;BME280;963;42.644;23.336;2022-07-03T09:54:02;94545.97;;;28.84;47.82
1472;BME280;963;42.644;23.336;2022-07-03T09:56:36;94546.38;;;29.07;46.35
1472;BME280;963;42.644;23.336;2022-07-03T10:01:28;94550.75;;;29.19;44.46
1472;BME280;963;42.644;23.336;2022-07-03T10:03:54;94539.91;;;29.19;41.04
1472;BME280;963;42.644;23.336;2022-07-03T10:06:55;94543.75;;;29.12;40.32
1472;BME280;963;42.644;23.336;2022-07-03T10:09:23;94535.69;;;29.18;40.62
1472;BME280;963;42.644;23.336;2022-07-03T10:11:49;94547.38;;;29.24;42.18
1472;BME280;963;42.644;23.336;2022-07-03T10:14:17;94536.16;;;29.31;39.82
1472;BME280;963;42.644;23.336;2022-07-03T10:16:43;94528.56;;;29.35;38.81
1472;BME280;963;42.644;23.336;2022-07-03T10:19:15;94530.38;;;29.38;39.11
1472;BME280;963;42.644;23.336;2022-07-03T10:21:42;94522.25;;;29.38;37.66
1472;BME280;963;42.644;23.336;2022-07-03T10:24:10;94515.53;;;29.48;36.06
1472;BME280;963;42.644;23.336;2022-07-03T10:26:36;94531.94;;;29.60;36.07
1472;BME280;963;42.644;23.336;2022-07-03T10:29:02;94526.31;;;29.78;36.50
1472;BME280;963;42.644;23.336;2022-07-03T10:31:28;94533.81;;;30.03;34.96
1472;BME280;963;42.644;23.336;2022-07-03T10:33:53;94512.19;;;30.09;36.45
1472;BME280;963;42.644;23.336;2022-07-03T10:36:20;94529.22;;;30.09;36.69
1472;BME280;963;42.644;23.336;2022-07-03T10:38:48;94512.22;;;29.94;36.84
1472;BME280;963;42.644;23.336;2022-07-03T10:44:07;94512.75;;;29.98;35.12
1472;BME280;963;42.644;23.336;2022-07-03T10:46:51;94505.78;;;29.92;34.49
1472;BME280;963;42.644;23.336;2022-07-03T10:49:17;94510.69;;;30.08;34.61
1472;BME280;963;42.644;23.336;2022-07-03T10:52:00;94501.81;;;30.07;34.04
1472;BME280;963;42.644;23.336;2022-07-03T11:07:30;94473.19;;;30.06;36.69
1472;BME280;963;42.644;23.336;2022-07-03T11:15:38;94488.50;;;30.09;37.28
1472;BME280;963;42.644;23.336;2022-07-03T11:18:17;94488.16;;;30.02;37.69
1472;BME280;963;42.644;23.336;2022-07-03T11:25:56;94470.56;;;29.77;37.68
1472;BME280;963;42.644;23.336;2022-07-03T11:36:10;94460.91;;;30.11;36.05
1472;BME280;963;42.644;23.336;2022-07-03T11:38:37;94453.53;;;30.11;36.05
1472;BME280;963;42.644;23.336;2022-07-03T11:41:06;94471.56;;;30.14;37.05
1472;BME280;963;42.644;23.336;2022-07-03T11:43:32;94451.81;;;30.14;36.75
1472;BME280;963;42.644;23.336;2022-07-03T11:45:59;94457.72;;;30.12;37.79
1472;BME280;963;42.644;23.336;2022-07-03T11:48:26;94455.47;;;30.31;37.73
1472;BME280;963;42.644;23.336;2022-07-03T11:50:58;94453.47;;;30.52;38.42
1472;BME280;963;42.644;23.336;2022-07-03T11:53:36;94451.69;;;30.69;37.06
1472;BME280;963;42.644;23.336;2022-07-03T11:56:05;94455.16;;;30.70;36.58
1472;BME280;963;42.644;23.336;2022-07-03T11:58:49;94442.25;;;30.91;35.63
1472;BME280;963;42.644;23.336;2022-07-03T12:03:46;94452.59;;;31.18;37.18
1472;BME280;963;42.644;23.336;2022-07-03T12:06:12;94439.50;;;31.17;37.83
1472;BME280;963;42.644;23.336;2022-07-03T12:08:37;94441.63;;;31.07;38.39
1472;BME280;963;42.644;23.336;2022-07-03T12:11:08;94437.63;;;31.28;37.56
1472;BME280;963;42.644;23.336;2022-07-03T12:13:34;94430.75;;;31.38;37.42
1472;BME280;963;42.644;23.336;2022-07-03T12:16:04;94445.44;;;31.58;37.29
1472;BME280;963;42.644;23.336;2022-07-03T12:21:12;94426.13;;;31.50;37.50
1472;BME280;963;42.644;23.336;2022-07-03T12:23:55;94420.66;;;31.45;37.68
1472;BME280;963;42.644;23.336;2022-07-03T12:28:54;94415.47;;;31.47;38.97
1472;BME280;963;42.644;23.336;2022-07-03T12:31:20;94418.47;;;31.49;38.46
1472;BME280;963;42.644;23.336;2022-07-03T12:33:45;94435.81;;;31.57;38.21
1472;BME280;963;42.644;23.336;2022-07-03T12:36:12;94423.00;;;31.63;38.75
1472;BME280;963;42.644;23.336;2022-07-03T12:38:38;94407.66;;;31.60;37.48
1472;BME280;963;42.644;23.336;2022-07-03T12:41:09;94422.66;;;31.50;37.54
1472;BME280;963;42.644;23.336;2022-07-03T12:43:42;94433.28;;;31.48;37.65
1472;BME280;963;42.644;23.336;2022-07-03T12:46:27;94425.16;;;31.53;37.84
1472;BME280;963;42.644;23.336;2022-07-03T12:48:58;94425.22;;;31.64;38.12
1472;BME280;963;42.644;23.336;2022-07-03T12:51:44;94427.38;;;31.55;38.22
1472;BME280;963;42.644;23.336;2022-07-03T12:54:14;94416.09;;;31.67;37.55
1472;BME280;963;42.644;23.336;2022-07-03T12:56:43;94411.75;;;31.87;37.75
1472;BME280;963;42.644;23.336;2022-07-03T12:59:28;94405.19;;;31.62;37.59
1472;BME280;963;42.644;23.336;2022-07-03T13:02:04;94432.00;;;31.80;37.01
1472;BME280;963;42.644;23.336;2022-07-03T13:04:37;94420.38;;;31.80;37.50
1472;BME280;963;42.644;23.336;2022-07-03T13:09:28;94406.78;;;31.80;37.22
1472;BME280;963;42.644;23.336;2022-07-03T13:11:53;94408.16;;;31.64;38.22
1472;BME280;963;42.644;23.336;2022-07-03T13:14:19;94404.63;;;31.52;38.27
1472;BME280;963;42.644;23.336;2022-07-03T13:16:46;94404.88;;;31.54;38.38
1472;BME280;963;42.644;23.336;2022-07-03T13:19:15;94402.56;;;31.79;37.19
1472;BME280;963;42.644;23.336;2022-07-03T13:21:40;94387.16;;;31.70;37.22
1472;BME280;963;42.644;23.336;2022-07-03T13:24:09;94403.56;;;31.38;37.56
1472;BME280;963;42.644;23.336;2022-07-03T13:26:34;94407.19;;;31.67;37.61
1472;BME280;963;42.644;23.336;2022-07-03T13:29:00;94400.88;;;31.92;38.11
1472;BME280;963;42.644;23.336;2022-07-03T13:31:25;94399.41;;;31.49;40.87
1472;BME280;963;42.644;23.336;2022-07-03T13:33:52;94407.31;;;31.47;41.18
1472;BME280;963;42.644;23.336;2022-07-03T13:36:17;94403.16;;;31.57;42.97
1472;BME280;963;42.644;23.336;2022-07-03T13:38:44;94399.66;;;31.45;43.10
1472;BME280;963;42.644;23.336;2022-07-03T13:41:10;94405.69;;;31.66;42.57
1472;BME280;963;42.644;23.336;2022-07-03T13:43:35;94390.44;;;31.74;40.11
1472;BME280;963;42.644;23.336;2022-07-03T13:46:01;94397.63;;;31.77;40.88
1472;BME280;963;42.644;23.336;2022-07-03T13:48:26;94397.53;;;31.66;42.30
1472;BME280;963;42.644;23.336;2022-07-03T13:50:52;94380.56;;;31.82;41.38
1472;BME280;963;42.644;23.336;2022-07-03T13:53:17;94386.91;;;32.27;40.63
1472;BME280;963;42.644;23.336;2022-07-03T13:55:42;94381.88;;;32.03;39.90
1472;BME280;963;42.644;23.336;2022-07-03T13:58:08;94378.81;;;31.79;40.87
1472;BME280;963;42.644;23.336;2022-07-03T14:00:34;94370.66;;;31.79;40.95
1472;BME280;963;42.644;23.336;2022-07-03T14:03:00;94362.75;;;31.81;40.96
1472;BME280;963;42.644;23.336;2022-07-03T14:05:26;94363.06;;;32.00;40.92
1472;BME280;963;42.644;23.336;2022-07-03T14:07:54;94365.41;;;31.70;40.82
1472;BME280;963;42.644;23.336;2022-07-03T14:10:19;94360.56;;;31.91;40.48
1472;BME280;963;42.644;23.336;2022-07-03T14:12:47;94365.03;;;31.46;42.43
1472;BME280;963;42.644;23.336;2022-07-03T14:15:13;94363.16;;;31.63;43.09
1472;BME280;963;42.644;23.336;2022-07-03T14:17:40;94359.81;;;31.90;43.17
1472;BME280;963;42.644;23.336;2022-07-03T14:20:06;94374.53;;;31.67;42.29
1472;BME280;963;42.644;23.336;2022-07-03T14:22:31;94367.94;;;31.31;42.81
1472;BME280;963;42.644;23.336;2022-07-03T14:24:57;94372.28;;;31.17;43.52
1472;BME280;963;42.644;23.336;2022-07-03T14:27:22;94374.19;;;31.11;44.03
1472;BME280;963;42.644;23.336;2022-07-03T14:30:07;94374.19;;;31.11;43.48
1472;BME280;963;42.644;23.336;2022-07-03T14:32:51;94368.44;;;31.29;43.55
1472;BME280;963;42.644;23.336;2022-07-03T14:35:16;94370.66;;;31.31;43.45
1472;BME280;963;42.644;23.336;2022-07-03T14:37:42;94394.25;;;31.56;43.39
1472;BME280;963;42.644;23.336;2022-07-03T14:40:07;94388.16;;;31.24;43.24
1472;BME280;963;42.644;23.336;2022-07-03T14:42:33;94386.28;;;31.41;42.70
1472;BME280;963;42.644;23.336;2022-07-03T14:44:58;94368.75;;;31.11;43.28
1472;BME280;963;42.644;23.336;2022-07-03T14:47:24;94377.03;;;30.91;43.33
1472;BME280;963;42.644;23.336;2022-07-03T14:49:49;94365.09;;;30.83;44.25
1472;BME280;963;42.644;23.336;2022-07-03T14:52:15;94373.81;;;30.87;43.42
1472;BME280;963;42.644;23.336;2022-07-03T14:54:41;94401.84;;;31.04;43.21
1472;BME280;963;42.644;23.336;2022-07-03T14:57:23;94367.72;;;31.03;43.33